Time;durP1;ratioP1;P1;durP2;ratioP2;P2;SDS_P1;SDS_P2;PMS_P1;PMS_P2;Temp;Humidity;BMP_temperature;BMP_pressure;BME280_temperature;BME280_humidity;BME280_pressure;Samples;Min_cycle;Max_cycle;Signal;HPM_P1;HPM_P2
2021/01/16 00:01:55;;;;;;;6.40;3.45;;;2.10;99.90;;;;;;10369839;28;20042;-52
2021/01/16 00:07:16;;;;;;;5.97;2.72;;;2.20;99.90;;;;;;10366065;28;20018;-51
2021/01/16 00:12:37;;;;;;;5.32;1.92;;;2.20;99.90;;;;;;10364393;28;20433;-52
2021/01/16 00:18:06;;;;;;;4.30;2.60;;;2.30;99.90;;;;;;10360896;28;20061;-51
2021/01/16 00:23:28;;;;;;;;;;;2.20;99.90;;;;;;10363018;28;20401;-52
2021/01/16 00:28:49;;;;;;;6.03;2.90;;;2.30;99.90;;;;;;10356124;28;19924;-52
2021/01/16 00:34:10;;;;;;;8.45;2.88;;;2.20;99.90;;;;;;10362083;28;20522;-52
2021/01/16 00:39:31;;;;;;;9.43;2.40;;;2.30;99.90;;;;;;10363728;28;20046;-52
2021/01/16 00:44:51;;;;;;;7.70;2.13;;;2.30;99.90;;;;;;10374278;28;20061;-52
2021/01/16 00:50:19;;;;;;;9.48;3.05;;;2.30;99.90;;;;;;10377624;28;20041;-52
2021/01/16 00:55:40;;;;;;;9.38;2.20;;;2.40;99.90;;;;;;10373182;28;20429;-51
2021/01/16 01:01:01;;;;;;;10.52;3.35;;;2.40;99.90;;;;;;10376409;28;20039;-52
2021/01/16 01:06:22;;;;;;;5.55;1.90;;;2.30;99.90;;;;;;10382924;28;20106;-52
2021/01/16 01:11:43;;;;;;;4.38;1.77;;;2.30;99.90;;;;;;10373114;28;20046;-52
2021/01/16 01:17:15;;;;;;;7.55;1.85;;;2.40;99.90;;;;;;10374995;28;20050;-52
2021/01/16 01:22:38;;;;;;;6.80;3.10;;;2.30;99.90;;;;;;10374223;28;20038;-52
2021/01/16 01:28:01;;;;;;;5.57;1.63;;;2.30;99.90;;;;;;10372882;28;20061;-52
2021/01/16 01:33:22;;;;;;;19.08;1.63;;;2.30;99.90;;;;;;10376039;28;20041;-51
2021/01/16 01:38:43;;;;;;;5.07;1.90;;;2.30;99.90;;;;;;10373288;28;20040;-52
2021/01/16 01:44:05;;;;;;;8.35;2.75;;;2.30;99.90;;;;;;10374847;28;20045;-52
2021/01/16 01:49:26;;;;;;;5.57;2.28;;;2.20;99.90;;;;;;10376243;28;20429;-52
2021/01/16 01:54:52;;;;;;;7.38;2.03;;;2.20;99.90;;;;;;10369953;28;20050;-51
2021/01/16 02:00:15;;;;;;;6.53;1.75;;;2.20;99.90;;;;;;10367635;28;20041;-52
2021/01/16 02:05:37;;;;;;;3.78;1.52;;;2.30;99.90;;;;;;10365643;28;20052;-51
2021/01/16 02:10:58;;;;;;;7.65;4.00;;;2.20;99.90;;;;;;10365097;28;20034;-51
2021/01/16 02:16:42;;;;;;;4.63;1.95;;;2.30;99.90;;;;;;10376519;28;20046;-51
2021/01/16 02:22:05;;;;;;;7.43;2.92;;;2.20;99.90;;;;;;10365665;28;20033;-52
2021/01/16 02:27:52;;;;;;;6.60;2.70;;;2.30;99.90;;;;;;10366187;28;20037;-52
2021/01/16 02:33:17;;;;;;;6.78;2.28;;;2.20;99.90;;;;;;10365789;28;20486;-52
2021/01/16 02:39:03;;;;;;;8.13;2.95;;;2.20;99.90;;;;;;10364763;28;21203;-51
2021/01/16 02:44:30;;;;;;;4.03;2.17;;;2.30;99.90;;;;;;10371945;28;20119;-52
2021/01/16 02:50:06;;;;;;;5.90;1.77;;;2.20;99.90;;;;;;10366296;28;20050;-52
2021/01/16 02:55:28;;;;;;;7.93;2.03;;;2.20;99.90;;;;;;10365649;28;20576;-51
2021/01/16 03:00:49;;;;;;;6.03;1.83;;;2.10;99.90;;;;;;10362516;28;20535;-51
2021/01/16 03:06:11;;;;;;;4.43;1.63;;;2.10;99.90;;;;;;10370806;28;20121;-52
2021/01/16 03:11:34;;;;;;;6.10;2.10;;;2.10;99.90;;;;;;10365647;28;20080;-51
2021/01/16 03:17:04;;;;;;;5.32;2.17;;;2.20;99.90;;;;;;10364361;28;20134;-52
2021/01/16 03:22:26;;;;;;;5.63;1.63;;;2.20;99.90;;;;;;10363356;28;20404;-52
2021/01/16 03:27:48;;;;;;;7.22;2.70;;;2.30;99.90;;;;;;10363031;28;20473;-51
2021/01/16 03:33:09;;;;;;;7.85;2.42;;;2.30;99.90;;;;;;10368594;28;20056;-52
2021/01/16 03:38:30;;;;;;;3.80;1.65;;;2.30;99.90;;;;;;10373888;28;20115;-52
2021/01/16 03:43:51;;;;;;;6.45;2.28;;;2.30;99.90;;;;;;10362417;28;20058;-51
2021/01/16 03:49:12;;;;;;;6.15;2.08;;;2.30;99.90;;;;;;10363988;28;20128;-52
2021/01/16 03:54:33;;;;;;;7.38;1.40;;;2.40;99.90;;;;;;10361589;28;20021;-52
2021/01/16 03:59:54;;;;;;;3.75;1.75;;;2.30;99.90;;;;;;10362443;28;20053;-52
2021/01/16 04:05:15;;;;;;;6.80;2.15;;;2.20;99.90;;;;;;10372058;28;20034;-52
2021/01/16 04:10:36;;;;;;;5.85;2.00;;;2.30;99.90;;;;;;10374650;28;20140;-52
2021/01/16 04:15:57;;;;;;;4.80;2.25;;;2.30;99.90;;;;;;10363866;28;20034;-52
2021/01/16 04:21:19;;;;;;;4.82;2.10;;;2.30;99.90;;;;;;10363090;28;20454;-52
2021/01/16 04:26:40;;;;;;;7.95;2.53;;;2.30;99.90;;;;;;10360239;28;20084;-51
2021/01/16 04:32:01;;;;;;;3.88;1.58;;;2.40;99.90;;;;;;10363971;28;20030;-52
2021/01/16 04:37:22;;;;;;;4.30;1.38;;;2.40;99.90;;;;;;10363356;28;20052;-52
2021/01/16 04:42:44;;;;;;;4.65;1.33;;;2.40;99.90;;;;;;10359113;28;20038;-52
2021/01/16 04:48:08;;;;;;;5.20;2.70;;;2.50;99.90;;;;;;10361161;28;20041;-51
2021/01/16 04:53:37;;;;;;;6.97;2.03;;;2.50;99.90;;;;;;10360702;28;20041;-52
2021/01/16 04:58:59;;;;;;;4.32;1.88;;;2.50;99.90;;;;;;10364402;28;20042;-52
2021/01/16 05:04:23;;;;;;;7.20;2.10;;;2.50;99.90;;;;;;10361457;28;20387;-52
2021/01/16 05:09:45;;;;;;;4.90;1.75;;;2.50;99.90;;;;;;10364482;28;20026;-52
2021/01/16 05:15:09;;;;;;;8.77;3.15;;;2.40;99.90;;;;;;10362948;28;20042;-52
2021/01/16 05:20:32;;;;;;;4.82;1.25;;;2.30;99.90;;;;;;10361571;28;20053;-51
2021/01/16 05:25:54;;;;;;;3.55;1.73;;;2.20;99.90;;;;;;10360792;28;20983;-51
2021/01/16 05:31:15;;;;;;;5.80;1.75;;;2.20;99.90;;;;;;10371195;28;20112;-52
2021/01/16 05:36:35;;;;;;;10.30;2.38;;;2.30;99.90;;;;;;10370946;28;20667;-51
2021/01/16 05:42:03;;;;;;;3.85;1.50;;;2.20;99.90;;;;;;10373273;28;20863;-52
2021/01/16 05:47:24;;;;;;;3.70;1.48;;;2.20;99.90;;;;;;10370193;28;20096;-51
2021/01/16 05:52:45;;;;;;;3.17;1.45;;;2.10;99.90;;;;;;10366494;28;20072;-51
2021/01/16 05:58:08;;;;;;;6.50;1.65;;;2.20;99.90;;;;;;10369086;28;20092;-51
2021/01/16 06:03:30;;;;;;;4.22;1.77;;;2.20;99.90;;;;;;10372091;28;20049;-51
2021/01/16 06:08:53;;;;;;;5.78;2.42;;;2.30;99.90;;;;;;10368166;28;20072;-52
2021/01/16 06:14:15;;;;;;;4.22;1.88;;;2.20;99.90;;;;;;10368656;28;20030;-52
2021/01/16 06:19:41;;;;;;;10.55;2.38;;;2.30;99.90;;;;;;10379499;28;20124;-51
2021/01/16 06:25:03;;;;;;;7.22;2.08;;;2.30;99.90;;;;;;10368777;28;20040;-52
2021/01/16 06:30:27;;;;;;;8.57;1.85;;;2.40;99.90;;;;;;10367533;28;20049;-52
2021/01/16 06:36:00;;;;;;;3.25;1.23;;;2.40;99.90;;;;;;10368183;28;20510;-51
2021/01/16 06:41:27;;;;;;;3.88;1.75;;;2.50;99.90;;;;;;10369634;28;20053;-52
2021/01/16 06:46:49;;;;;;;6.80;1.33;;;2.50;99.90;;;;;;10368594;28;20053;-51
2021/01/16 06:52:10;;;;;;;6.65;2.22;;;2.50;99.90;;;;;;10368206;28;20374;-51
2021/01/16 06:57:32;;;;;;;5.95;1.58;;;2.40;99.90;;;;;;10370069;28;20037;-52
2021/01/16 07:02:55;;;;;;;9.48;2.38;;;2.50;99.90;;;;;;10366618;28;20052;-51
2021/01/16 07:08:16;;;;;;;4.22;1.30;;;2.50;99.90;;;;;;10365081;28;20065;-52
2021/01/16 07:13:41;;;;;;;5.43;1.65;;;2.40;99.90;;;;;;10367190;28;20041;-51
2021/01/16 07:19:03;;;;;;;5.63;1.70;;;2.40;99.90;;;;;;10380592;28;20056;-51
2021/01/16 07:24:25;;;;;;;2.45;1.48;;;2.40;99.90;;;;;;10365705;28;20309;-51
2021/01/16 07:29:47;;;;;;;5.53;1.77;;;2.50;99.90;;;;;;10365670;28;20056;-51
2021/01/16 07:35:16;;;;;;;9.82;1.92;;;2.40;99.90;;;;;;10367127;28;20133;-51
2021/01/16 07:40:42;;;;;;;6.40;2.22;;;2.50;99.90;;;;;;10365148;28;20033;-51
2021/01/16 07:46:09;;;;;;;4.85;1.85;;;2.40;99.90;;;;;;10368356;28;20046;-51
2021/01/16 07:51:38;;;;;;;6.82;2.10;;;2.30;99.90;;;;;;10365381;28;20041;-51
2021/01/16 07:56:59;;;;;;;3.65;1.35;;;2.30;99.90;;;;;;10363675;28;20041;-51
2021/01/16 08:02:27;;;;;;;2.55;1.00;;;2.30;99.90;;;;;;10362619;28;20057;-51
2021/01/16 08:08:25;;;;;;;8.00;1.93;;;2.40;99.90;;;;;;10354995;28;20398;-51
2021/01/16 08:13:50;;;;;;;4.55;1.48;;;2.40;99.90;;;;;;10353774;28;20029;-51
2021/01/16 08:19:11;;;;;;;7.85;1.80;;;2.30;99.90;;;;;;10359535;28;20084;-51
2021/01/16 08:24:33;;;;;;;6.78;3.08;;;2.30;99.90;;;;;;10363235;28;20398;-51
2021/01/16 08:29:54;;;;;;;5.07;2.65;;;2.30;99.90;;;;;;10357982;28;20083;-51
2021/01/16 08:35:27;;;;;;;22.95;2.53;;;2.40;99.90;;;;;;10357114;28;20128;-51
2021/01/16 08:40:55;;;;;;;5.78;2.67;;;2.40;99.90;;;;;;10355689;28;20044;-51
2021/01/16 08:46:34;;;;;;;7.47;2.40;;;2.40;99.90;;;;;;10358494;28;20038;-51
2021/01/16 08:51:55;;;;;;;9.73;2.35;;;2.40;99.90;;;;;;10360178;28;20051;-51
2021/01/16 08:57:17;;;;;;;5.40;1.88;;;2.40;99.90;;;;;;10359004;28;20053;-51
2021/01/16 09:02:38;;;;;;;6.57;2.47;;;2.30;99.90;;;;;;10362867;28;20065;-51
2021/01/16 09:07:59;;;;;;;6.85;2.45;;;2.40;99.90;;;;;;10373125;28;20038;-51
2021/01/16 09:13:30;;;;;;;6.82;2.38;;;2.40;99.90;;;;;;10372738;28;20057;-51
2021/01/16 09:18:55;;;;;;;9.57;2.65;;;2.40;99.90;;;;;;10374231;28;20129;-51
2021/01/16 09:24:21;;;;;;;6.25;2.92;;;2.60;99.90;;;;;;10369676;28;20057;-51
2021/01/16 09:29:42;;;;;;;12.57;2.60;;;2.70;99.90;;;;;;10366090;28;20104;-51
2021/01/16 09:35:06;;;;;;;5.97;2.35;;;2.50;99.90;;;;;;10373280;28;20057;-51
2021/01/16 09:40:35;;;;;;;11.50;3.03;;;2.50;99.90;;;;;;10368593;28;20752;-51
2021/01/16 09:45:58;;;;;;;5.72;2.38;;;2.40;99.90;;;;;;10369356;28;20045;-51
2021/01/16 09:51:28;;;;;;;12.43;4.03;;;2.50;99.90;;;;;;10369824;28;20038;-52
2021/01/16 09:56:50;;;;;;;8.10;2.72;;;2.60;99.90;;;;;;10367054;28;20038;-51
2021/01/16 10:02:13;;;;;;;7.93;2.90;;;2.70;99.90;;;;;;10374616;28;20142;-52
2021/01/16 10:07:38;;;;;;;13.35;3.65;;;2.70;99.90;;;;;;10366241;28;21186;-51
2021/01/16 10:13:00;;;;;;;7.60;3.33;;;2.80;99.90;;;;;;10367538;28;20029;-51
2021/01/16 10:18:21;;;;;;;6.30;2.90;;;2.70;99.90;;;;;;10365552;28;20067;-52
2021/01/16 10:23:43;;;;;;;9.88;3.08;;;2.70;99.90;;;;;;10363817;28;20049;-51
2021/01/16 10:29:04;;;;;;;7.28;2.35;;;2.60;99.90;;;;;;10365269;28;20077;-52
2021/01/16 10:34:30;;;;;;;7.28;2.55;;;2.70;99.90;;;;;;10366321;28;20548;-51
2021/01/16 10:39:51;;;;;;;9.25;2.45;;;2.70;99.90;;;;;;10361943;28;20132;-51
2021/01/16 10:45:17;;;;;;;6.03;3.33;;;2.70;99.90;;;;;;10366449;28;20049;-51
2021/01/16 10:50:39;;;;;;;9.40;3.53;;;2.70;99.90;;;;;;10364694;28;20038;-51
2021/01/16 10:56:14;;;;;;;6.10;2.78;;;2.70;99.90;;;;;;10366131;28;20029;-51
2021/01/16 11:01:47;;;;;;;5.97;2.22;;;2.70;99.90;;;;;;10364031;28;20057;-51
2021/01/16 11:07:28;;;;;;;5.07;2.30;;;2.70;99.90;;;;;;10365811;28;20061;-52
2021/01/16 11:12:49;;;;;;;7.38;2.88;;;2.70;99.90;;;;;;10362467;28;20045;-51
2021/01/16 11:18:43;;;;;;;6.45;2.33;;;2.80;99.90;;;;;;10362504;28;20060;-52
2021/01/16 11:24:51;;;;;;;9.55;2.13;;;2.80;99.90;;;;;;10371330;28;20038;-51
2021/01/16 11:30:18;;;;;;;4.20;1.58;;;2.60;99.90;;;;;;10360178;28;20072;-51
2021/01/16 11:35:41;;;;;;;7.72;3.00;;;2.60;99.90;;;;;;10365237;28;20050;-51
2021/01/16 11:41:02;;;;;;;7.50;2.90;;;2.70;99.90;;;;;;10364776;28;20037;-51
2021/01/16 11:46:25;;;;;;;4.60;1.33;;;2.60;99.90;;;;;;10367004;28;20537;-51
2021/01/16 11:51:46;;;;;;;8.00;2.50;;;2.70;99.90;;;;;;10362347;28;20041;-51
2021/01/16 11:57:11;;;;;;;5.95;2.40;;;2.60;99.90;;;;;;10361456;28;20038;-52
2021/01/16 12:02:33;;;;;;;3.83;1.48;;;2.60;99.90;;;;;;10367079;28;20046;-51
2021/01/16 12:07:56;;;;;;;3.25;1.00;;;2.60;99.90;;;;;;10356263;28;20402;-52
2021/01/16 12:13:17;;;;;;;1.83;0.80;;;2.60;99.90;;;;;;10364561;28;20030;-51
2021/01/16 12:18:40;;;;;;;2.50;1.08;;;2.70;99.90;;;;;;10359837;28;20405;-51
2021/01/16 12:24:08;;;;;;;4.88;1.33;;;2.80;99.90;;;;;;10358980;28;20116;-51
2021/01/16 12:29:39;;;;;;;2.58;1.27;;;2.70;99.90;;;;;;10358270;28;20076;-52
2021/01/16 12:35:00;;;;;;;1.95;0.70;;;2.80;99.90;;;;;;10375935;28;20069;-52
2021/01/16 12:40:23;;;;;;;2.97;1.45;;;2.80;99.90;;;;;;10356164;28;20045;-51
2021/01/16 12:45:45;;;;;;;3.72;0.95;;;2.70;99.90;;;;;;10390937;28;20038;-52
2021/01/16 12:51:07;;;;;;;6.82;1.55;;;2.70;99.90;;;;;;10358362;28;20390;-51
2021/01/16 12:56:29;;;;;;;2.05;1.02;;;2.60;99.90;;;;;;10362704;28;20065;-51
2021/01/16 13:01:51;;;;;;;2.13;1.25;;;2.70;99.90;;;;;;10356948;28;20588;-51
2021/01/16 13:07:12;;;;;;;3.72;0.98;;;2.60;99.90;;;;;;10363400;28;20030;-51
2021/01/16 13:12:35;;;;;;;2.90;1.02;;;2.50;99.90;;;;;;10371135;28;20196;-51
2021/01/16 13:17:57;;;;;;;2.50;1.17;;;2.50;99.90;;;;;;10362605;28;20041;-51
2021/01/16 13:23:34;;;;;;;7.28;1.73;;;2.40;99.90;;;;;;10392767;28;20034;-51
2021/01/16 13:28:55;;;;;;;3.13;1.23;;;2.40;99.90;;;;;;10361945;28;20045;-50
2021/01/16 13:34:16;;;;;;;2.08;1.05;;;2.40;99.90;;;;;;10355813;28;20508;-51
2021/01/16 13:39:38;;;;;;;8.13;1.52;;;2.40;99.90;;;;;;10354588;28;20117;-51
2021/01/16 13:45:02;;;;;;;2.88;1.33;;;2.30;99.90;;;;;;10378591;28;20038;-50
2021/01/16 13:50:24;;;;;;;4.97;1.15;;;2.20;99.90;;;;;;10359687;28;20058;-51
2021/01/16 13:55:55;;;;;;;4.80;1.83;;;2.20;99.90;;;;;;10394462;28;20144;-51
2021/01/16 14:01:37;;;;;;;7.78;1.90;;;2.20;99.90;;;;;;10402349;28;20068;-51
2021/01/16 14:07:01;;;;;;;7.75;2.17;;;2.00;99.90;;;;;;10388022;28;20049;-51
2021/01/16 14:12:22;;;;;;;4.35;1.58;;;1.60;99.90;;;;;;10378269;28;20088;-51
2021/01/16 14:17:44;;;;;;;3.65;1.98;;;1.60;99.90;;;;;;10377876;28;20489;-50
2021/01/16 14:23:05;;;;;;;5.50;1.13;;;1.30;99.90;;;;;;10363830;28;20061;-50
2021/01/16 14:28:26;;;;;;;5.82;1.90;;;0.90;99.90;;;;;;10402117;28;20087;-50
2021/01/16 14:33:58;;;;;;;3.72;1.10;;;0.60;99.90;;;;;;10379170;28;20030;-51
2021/01/16 14:39:19;;;;;;;5.97;1.85;;;0.50;99.90;;;;;;10381803;28;20088;-50
2021/01/16 14:44:40;;;;;;;6.82;2.13;;;0.50;99.90;;;;;;10360886;28;20050;-51
2021/01/16 14:50:09;;;;;;;3.85;1.42;;;0.50;99.90;;;;;;10363408;28;20037;-51
2021/01/16 14:55:30;;;;;;;7.93;1.95;;;0.40;99.90;;;;;;10375720;28;20485;-51
2021/01/16 15:00:51;;;;;;;6.07;1.30;;;0.40;99.90;;;;;;10381724;28;20042;-50
2021/01/16 15:06:12;;;;;;;5.22;1.63;;;0.30;99.90;;;;;;10363894;28;20041;-51
2021/01/16 15:11:33;;;;;;;8.63;1.95;;;0.20;99.90;;;;;;10374656;28;20038;-51
2021/01/16 15:16:56;;;;;;;6.35;1.98;;;0.20;99.90;;;;;;10358566;28;20100;-51
2021/01/16 15:22:17;;;;;;;3.63;1.77;;;0.10;99.90;;;;;;10367968;28;20037;-51
2021/01/16 15:27:38;;;;;;;7.40;3.33;;;0.20;99.90;;;;;;10400095;28;20539;-51
2021/01/16 15:33:13;;;;;;;5.78;1.63;;;0.10;99.90;;;;;;10378327;28;20470;-51
2021/01/16 15:38:39;;;;;;;6.82;2.40;;;0.10;99.90;;;;;;10360067;28;20124;-51
2021/01/16 15:44:00;;;;;;;5.70;2.47;;;0.10;99.90;;;;;;10361707;28;20180;-51
2021/01/16 15:49:27;;;;;;;11.98;3.08;;;0.10;99.90;;;;;;10362138;28;20789;-51
2021/01/16 15:54:49;;;;;;;6.95;2.28;;;0.00;99.90;;;;;;10364853;28;20041;-51
2021/01/16 16:00:29;;;;;;;6.20;2.88;;;0.00;99.90;;;;;;10399297;28;20045;-52
2021/01/16 16:05:51;;;;;;;6.18;2.10;;;0.00;99.90;;;;;;10379357;28;20063;-51
2021/01/16 16:11:12;;;;;;;7.72;1.83;;;-0.10;99.90;;;;;;10358828;28;20034;-52
2021/01/16 16:16:34;;;;;;;12.02;3.33;;;-0.10;99.90;;;;;;10356636;28;20037;-52
2021/01/16 16:21:55;;;;;;;9.13;3.85;;;0.00;99.90;;;;;;10358260;28;20065;-52
2021/01/16 16:27:16;;;;;;;6.22;2.92;;;0.20;99.90;;;;;;10388868;28;20038;-52
2021/01/16 16:32:43;;;;;;;5.97;3.10;;;0.10;99.90;;;;;;10358437;28;20486;-52
2021/01/16 16:38:06;;;;;;;11.32;2.55;;;0.10;99.90;;;;;;10397032;28;20037;-52
2021/01/16 16:43:28;;;;;;;3.92;2.28;;;0.10;99.90;;;;;;10374126;28;20049;-52
2021/01/16 16:48:49;;;;;;;7.82;2.60;;;0.10;99.90;;;;;;10359615;28;20037;-52
2021/01/16 16:54:10;;;;;;;7.93;3.13;;;0.10;99.90;;;;;;10359288;28;20133;-52
2021/01/16 16:59:31;;;;;;;10.52;3.47;;;0.00;99.90;;;;;;10406968;28;20081;-52
2021/01/16 17:04:52;;;;;;;11.90;3.85;;;0.10;99.90;;;;;;10363884;28;20061;-52
2021/01/16 17:10:14;;;;;;;7.32;2.65;;;0.00;99.90;;;;;;10358762;28;20061;-52
2021/01/16 17:15:36;;;;;;;5.40;2.53;;;0.00;99.90;;;;;;10359645;28;20089;-52
2021/01/16 17:20:57;;;;;;;12.63;2.70;;;0.00;99.90;;;;;;10360295;28;20130;-52
2021/01/16 17:26:18;;;;;;;8.50;2.92;;;0.10;99.90;;;;;;10379605;28;20033;-52
2021/01/16 17:31:40;;;;;;;7.80;1.88;;;0.10;99.90;;;;;;10378495;28;20042;-52
2021/01/16 17:37:05;;;;;;;11.10;3.42;;;0.10;99.90;;;;;;10381425;28;20034;-52
2021/01/16 17:42:26;;;;;;;14.57;4.13;;;0.00;99.90;;;;;;10364194;28;20252;-52
2021/01/16 17:47:49;;;;;;;7.22;3.30;;;0.00;99.90;;;;;;10391141;28;20140;-52
2021/01/16 17:53:10;;;;;;;7.55;2.72;;;0.10;99.90;;;;;;10374483;28;20029;-52
2021/01/16 17:58:31;;;;;;;6.30;2.85;;;0.10;99.90;;;;;;10365229;28;20323;-52
2021/01/16 18:03:52;;;;;;;8.63;1.98;;;0.10;99.90;;;;;;10380600;28;20045;-52
2021/01/16 18:09:13;;;;;;;9.88;3.72;;;0.10;99.90;;;;;;10372647;28;20026;-52
2021/01/16 18:14:34;;;;;;;11.00;4.22;;;0.20;99.90;;;;;;10363537;28;20490;-52
2021/01/16 18:19:55;;;;;;;11.20;3.28;;;0.10;99.90;;;;;;10385784;28;20042;-52
2021/01/16 18:25:16;;;;;;;9.25;3.25;;;0.10;99.90;;;;;;10378438;28;20041;-52
2021/01/16 18:30:37;;;;;;;10.00;2.65;;;0.10;99.90;;;;;;10362308;28;20044;-52
2021/01/16 18:36:06;;;;;;;5.07;3.10;;;0.10;99.90;;;;;;10377347;28;20037;-51
2021/01/16 18:41:27;;;;;;;7.38;2.55;;;0.10;99.90;;;;;;10371704;28;20064;-52
2021/01/16 18:46:49;;;;;;;9.27;3.95;;;0.10;99.90;;;;;;10363006;28;20046;-52
2021/01/16 18:52:10;;;;;;;6.60;3.17;;;0.20;99.90;;;;;;10386281;28;20030;-51
2021/01/16 18:57:35;;;;;;;10.30;3.78;;;0.20;99.90;;;;;;10401892;28;20479;-52
2021/01/16 19:02:56;;;;;;;9.75;3.42;;;0.10;99.90;;;;;;10401388;28;20034;-51
2021/01/16 19:08:17;;;;;;;10.38;4.57;;;0.20;99.90;;;;;;10362358;28;20034;-52
2021/01/16 19:13:39;;;;;;;10.25;4.20;;;0.20;99.90;;;;;;10365043;28;20038;-52
2021/01/16 19:19:00;;;;;;;16.15;4.57;;;0.30;99.90;;;;;;10400519;28;20467;-51
2021/01/16 19:24:21;;;;;;;8.05;3.00;;;0.20;99.90;;;;;;10390164;28;20497;-52
2021/01/16 19:29:41;;;;;;;11.02;3.25;;;0.20;99.90;;;;;;10360090;28;20053;-52
2021/01/16 19:35:03;;;;;;;14.65;4.50;;;0.30;99.90;;;;;;10400085;28;20124;-52
2021/01/16 19:40:24;;;;;;;11.32;4.05;;;0.30;99.90;;;;;;10362696;28;20041;-52
2021/01/16 19:45:45;;;;;;;12.88;4.85;;;0.40;99.90;;;;;;10381524;28;20406;-52
2021/01/16 19:51:06;;;;;;;7.82;3.72;;;0.40;99.90;;;;;;10395935;28;20566;-51
2021/01/16 19:56:27;;;;;;;11.50;4.10;;;0.30;99.90;;;;;;10363233;28;20678;-51
2021/01/16 20:01:48;;;;;;;9.68;3.80;;;0.40;99.90;;;;;;10358530;28;20533;-51
2021/01/16 20:07:09;;;;;;;8.30;3.13;;;0.40;99.90;;;;;;10360405;28;20153;-52
2021/01/16 20:12:35;;;;;;;11.55;3.30;;;0.40;99.90;;;;;;10373467;28;20544;-52
2021/01/16 20:17:56;;;;;;;6.05;3.22;;;0.40;99.90;;;;;;10384916;28;20108;-52
2021/01/16 20:23:17;;;;;;;10.35;2.90;;;0.40;99.90;;;;;;10385601;28;20026;-52
2021/01/16 20:28:40;;;;;;;9.93;3.20;;;0.30;99.90;;;;;;10385675;28;20025;-51
2021/01/16 20:34:01;;;;;;;7.53;3.53;;;0.40;99.90;;;;;;10365526;28;20038;-51
2021/01/16 20:39:22;;;;;;;8.48;3.15;;;0.40;99.90;;;;;;10368024;28;20128;-52
2021/01/16 20:44:43;;;;;;;12.30;3.28;;;0.50;99.90;;;;;;10358027;28;20042;-51
2021/01/16 20:50:05;;;;;;;24.42;5.68;;;0.50;99.90;;;;;;10359021;28;20033;-51
2021/01/16 20:55:26;;;;;;;6.50;3.03;;;0.40;99.90;;;;;;10357995;28;20054;-51
2021/01/16 21:00:47;;;;;;;10.98;3.85;;;0.40;99.90;;;;;;10373715;28;20045;-52
2021/01/16 21:06:08;;;;;;;14.80;4.75;;;0.40;99.90;;;;;;10371356;28;20026;-51
2021/01/16 21:11:29;;;;;;;17.55;3.63;;;0.40;99.90;;;;;;10380081;28;20045;-51
2021/01/16 21:16:50;;;;;;;7.60;3.97;;;0.40;99.90;;;;;;10364503;28;20131;-51
2021/01/16 21:22:11;;;;;;;14.88;3.88;;;0.40;99.90;;;;;;10405298;28;20107;-52
2021/01/16 21:27:34;;;;;;;11.65;3.72;;;0.40;99.90;;;;;;10382193;28;20561;-52
2021/01/16 21:32:57;;;;;;;12.27;4.45;;;0.50;99.90;;;;;;10366566;28;20034;-52
2021/01/16 21:38:18;;;;;;;14.93;5.60;;;0.50;99.90;;;;;;10377541;28;20084;-51
2021/01/16 21:43:39;;;;;;;12.00;3.67;;;0.50;99.90;;;;;;10362953;28;20042;-51
2021/01/16 21:49:00;;;;;;;8.38;2.83;;;0.60;99.90;;;;;;10377464;28;20500;-52
2021/01/16 21:54:21;;;;;;;9.13;2.90;;;0.50;99.90;;;;;;10363880;28;20081;-51
2021/01/16 21:59:42;;;;;;;13.55;5.38;;;0.50;99.90;;;;;;10364043;28;20042;-52
2021/01/16 22:05:04;;;;;;;10.32;4.40;;;0.50;99.90;;;;;;10385090;28;20034;-52
2021/01/16 22:10:26;;;;;;;16.85;3.72;;;0.60;99.90;;;;;;10373903;28;20045;-52
2021/01/16 22:15:49;;;;;;;11.05;5.13;;;0.60;99.90;;;;;;10362708;28;20368;-52
2021/01/16 22:21:10;;;;;;;12.77;3.92;;;0.60;99.90;;;;;;10367743;28;20034;-51
2021/01/16 22:26:31;;;;;;;21.05;5.30;;;0.60;99.90;;;;;;10363555;28;20041;-52
2021/01/16 22:31:52;;;;;;;12.73;4.60;;;0.60;99.90;;;;;;10402215;28;20040;-52
2021/01/16 22:37:16;;;;;;;15.15;4.80;;;0.60;99.90;;;;;;10362838;28;20042;-52
2021/01/16 22:42:40;;;;;;;15.40;4.05;;;0.50;99.90;;;;;;10361836;28;20042;-52
2021/01/16 22:48:01;;;;;;;16.55;4.00;;;0.60;99.90;;;;;;10369206;28;20604;-52
2021/01/16 22:53:22;;;;;;;11.88;3.75;;;0.60;99.90;;;;;;10371520;28;20041;-52
2021/01/16 22:58:43;;;;;;;11.48;2.97;;;0.60;99.90;;;;;;10360631;28;20056;-52
2021/01/16 23:04:04;;;;;;;15.93;4.85;;;0.60;99.90;;;;;;10361831;28;20054;-52
2021/01/16 23:09:25;;;;;;;16.02;5.72;;;0.60;99.90;;;;;;10360591;28;20125;-52
2021/01/16 23:14:46;;;;;;;18.08;5.70;;;0.60;99.90;;;;;;10384988;28;20026;-52
2021/01/16 23:20:14;;;;;;;8.40;3.33;;;0.60;99.90;;;;;;10384191;28;20088;-52
2021/01/16 23:25:35;;;;;;;11.73;3.57;;;0.60;99.90;;;;;;10360288;28;20585;-52
2021/01/16 23:30:57;;;;;;;10.98;3.08;;;0.70;99.90;;;;;;10386980;28;20037;-52
2021/01/16 23:36:19;;;;;;;11.63;3.63;;;0.70;99.90;;;;;;10369996;28;20034;-52
2021/01/16 23:41:40;;;;;;;16.55;5.07;;;0.60;99.90;;;;;;10363471;28;20040;-52
2021/01/16 23:47:01;;;;;;;10.93;4.97;;;0.60;99.90;;;;;;10386671;28;20069;-52
2021/01/16 23:52:22;;;;;;;16.77;4.70;;;0.60;99.90;;;;;;10369958;28;20111;-52
2021/01/16 23:57:43;;;;;;;16.77;6.10;;;0.60;99.90;;;;;;10397983;28;20675;-52
